createdAt,value
2023-05-12T00:00:35.270Z,7.61
2023-05-12T00:10:56.779Z,7.60
2023-05-12T00:21:18.514Z,7.58
2023-05-12T00:31:39.980Z,7.60
2023-05-12T00:42:01.918Z,7.50
2023-05-12T00:52:23.863Z,7.29
2023-05-12T01:02:46.000Z,6.78
2023-05-12T01:13:08.028Z,6.48
2023-05-12T01:23:35.747Z,6.33
2023-05-12T01:33:57.504Z,6.21
2023-05-12T01:44:20.531Z,6.05
2023-05-12T01:54:42.427Z,5.94
2023-05-12T02:05:05.308Z,5.95
2023-05-12T02:15:27.356Z,5.92
2023-05-12T02:25:50.493Z,5.83
2023-05-12T02:36:12.341Z,5.96
2023-05-12T02:46:34.325Z,6.17
2023-05-12T02:56:58.137Z,6.46
2023-05-12T03:07:19.997Z,6.64
2023-05-12T03:17:41.678Z,6.97
2023-05-12T03:28:03.810Z,7.42
2023-05-12T03:38:25.540Z,7.94
2023-05-12T03:48:47.339Z,8.47
2023-05-12T03:59:09.071Z,8.99
2023-05-12T04:09:33.069Z,9.53
2023-05-12T04:19:54.908Z,9.98
2023-05-12T04:30:17.556Z,10.53
2023-05-12T04:40:39.927Z,11.12
2023-05-12T04:51:01.871Z,11.81
2023-05-12T05:01:23.816Z,12.57
2023-05-12T05:11:45.369Z,13.11
2023-05-12T05:22:07.504Z,13.52
2023-05-12T05:32:29.107Z,14.18
2023-05-12T05:42:50.375Z,14.89
2023-05-12T05:53:12.228Z,15.28
2023-05-12T06:03:34.242Z,15.59
2023-05-12T06:13:55.837Z,16.09
2023-05-12T06:24:17.410Z,16.43
2023-05-12T06:34:38.961Z,16.81
2023-05-12T06:45:01.617Z,17.11
2023-05-12T06:55:24.151Z,16.81
2023-05-12T07:05:46.316Z,17.13
2023-05-12T07:16:07.973Z,16.84
2023-05-12T07:26:29.850Z,17.42
2023-05-12T07:36:51.626Z,17.68
2023-05-12T07:47:13.027Z,17.78
2023-05-12T07:57:34.732Z,17.90
2023-05-12T08:07:56.234Z,17.98
2023-05-12T08:18:17.898Z,18.40
2023-05-12T08:28:39.918Z,19.30
2023-05-12T08:39:02.675Z,19.35
2023-05-12T08:49:25.710Z,18.69
2023-05-12T08:59:47.955Z,17.83
2023-05-12T09:10:29.814Z,18.60
2023-05-12T09:20:55.016Z,18.74
2023-05-12T09:31:22.359Z,18.16
2023-05-12T09:41:44.187Z,18.29
2023-05-12T09:52:05.911Z,19.46
2023-05-12T10:02:28.608Z,19.26
2023-05-12T10:12:41.465Z,18.24
2023-05-12T10:23:03.556Z,17.86
2023-05-12T10:33:25.535Z,18.49
2023-05-12T10:43:49.622Z,20.14
2023-05-12T10:54:18.356Z,20.74
2023-05-12T11:04:55.659Z,20.35
2023-05-12T11:15:18.209Z,19.86
2023-05-12T11:25:41.573Z,19.67
2023-05-12T11:36:06.053Z,19.62
2023-05-12T11:46:30.929Z,19.67
2023-05-12T11:56:54.298Z,20.31
2023-05-12T12:07:15.966Z,21.93
2023-05-12T12:17:38.109Z,21.75
2023-05-12T12:27:59.673Z,22.35
2023-05-12T12:38:21.606Z,21.15
2023-05-12T12:48:43.670Z,22.91
2023-05-12T12:59:05.416Z,22.32
2023-05-12T13:09:26.928Z,20.39
2023-05-12T13:19:48.452Z,23.68
2023-05-12T13:30:13.380Z,27.23
2023-05-12T13:40:35.442Z,26.20
2023-05-12T13:50:57.622Z,23.96
2023-05-12T14:01:19.246Z,24.22
2023-05-12T14:11:41.079Z,24.31
2023-05-12T14:22:05.899Z,24.02
2023-05-12T14:32:31.421Z,25.23
2023-05-12T14:42:52.903Z,24.17
2023-05-12T14:53:14.408Z,24.40
2023-05-12T15:03:36.019Z,24.84
2023-05-12T15:13:57.526Z,23.65
2023-05-12T15:24:19.175Z,22.08
2023-05-12T15:34:40.787Z,20.90
2023-05-12T15:45:02.546Z,20.07
2023-05-12T15:55:24.315Z,19.63
2023-05-12T16:05:45.513Z,19.25
2023-05-12T16:16:08.165Z,19.03
2023-05-12T16:26:30.338Z,18.66
2023-05-12T16:36:52.110Z,18.49
2023-05-12T16:47:13.684Z,18.23
2023-05-12T16:57:35.304Z,18.00
2023-05-12T17:07:57.173Z,17.81
2023-05-12T17:18:18.688Z,17.16
2023-05-12T17:28:40.501Z,16.72
2023-05-12T17:39:02.390Z,16.00
2023-05-12T17:49:24.635Z,15.46
2023-05-12T17:59:46.493Z,15.11
2023-05-12T18:10:09.729Z,14.75
2023-05-12T18:20:31.505Z,14.57
2023-05-12T18:30:54.552Z,14.38
2023-05-12T18:41:17.704Z,14.13
2023-05-12T18:51:38.955Z,14.22
2023-05-12T19:02:01.017Z,14.26
2023-05-12T19:12:22.485Z,14.94
2023-05-12T19:22:44.850Z,15.18
2023-05-12T19:33:06.700Z,14.73
2023-05-12T19:43:28.258Z,14.68
2023-05-12T19:53:49.594Z,14.48
2023-05-12T20:04:11.278Z,14.25
2023-05-12T20:14:33.773Z,13.78
2023-05-12T20:24:55.464Z,13.41
2023-05-12T20:35:17.204Z,13.17
2023-05-12T20:45:38.958Z,13.26
2023-05-12T20:56:00.488Z,13.01
2023-05-12T21:06:22.094Z,12.76
2023-05-12T21:16:43.339Z,12.31
2023-05-12T21:27:06.474Z,12.04
2023-05-12T21:37:28.065Z,11.64
2023-05-12T21:47:51.329Z,11.21
2023-05-12T21:58:13.339Z,11.06
2023-05-12T22:08:37.972Z,10.92
2023-05-12T22:18:59.729Z,10.52
2023-05-12T22:29:21.888Z,10.00
2023-05-12T22:39:43.657Z,9.76
2023-05-12T22:50:05.701Z,9.75
2023-05-12T23:00:28.079Z,9.75
2023-05-12T23:10:49.364Z,9.65
2023-05-12T23:21:10.813Z,9.51
2023-05-12T23:31:32.351Z,9.27
2023-05-12T23:41:53.940Z,9.04
2023-05-12T23:52:15.733Z,8.77
